sensor_id;sensor_type;location;lat;lon;timestamp;P1;durP1;ratioP1;P2;durP2;ratioP2
46180;SDS011;58963;50.438;30.594;2022-11-15T00:03:14;16.17;;;10.90;;
46180;SDS011;58963;50.438;30.594;2022-11-15T00:08:33;17.42;;;10.98;;
46180;SDS011;58963;50.438;30.594;2022-11-15T00:13:56;19.20;;;11.93;;
46180;SDS011;58963;50.438;30.594;2022-11-15T00:19:16;20.88;;;12.07;;
46180;SDS011;58963;50.438;30.594;2022-11-15T00:24:35;21.00;;;12.95;;
46180;SDS011;58963;50.438;30.594;2022-11-15T00:29:54;21.15;;;13.50;;
46180;SDS011;58963;50.438;30.594;2022-11-15T00:35:13;18.92;;;12.27;;
46180;SDS011;58963;50.438;30.594;2022-11-15T00:40:33;17.30;;;11.05;;
46180;SDS011;58963;50.438;30.594;2022-11-15T00:45:52;14.55;;;11.52;;
46180;SDS011;58963;50.438;30.594;2022-11-15T00:51:11;15.93;;;10.68;;
46180;SDS011;58963;50.438;30.594;2022-11-15T00:56:31;18.13;;;11.40;;
46180;SDS011;58963;50.438;30.594;2022-11-15T01:01:50;18.75;;;11.77;;
46180;SDS011;58963;50.438;30.594;2022-11-15T01:07:09;18.88;;;9.90;;
46180;SDS011;58963;50.438;30.594;2022-11-15T01:12:29;18.17;;;11.38;;
46180;SDS011;58963;50.438;30.594;2022-11-15T01:17:48;15.02;;;9.48;;
46180;SDS011;58963;50.438;30.594;2022-11-15T01:23:08;13.10;;;8.57;;
46180;SDS011;58963;50.438;30.594;2022-11-15T01:28:35;9.25;;;6.47;;
46180;SDS011;58963;50.438;30.594;2022-11-15T01:33:55;9.85;;;6.85;;
46180;SDS011;58963;50.438;30.594;2022-11-15T01:39:14;11.02;;;6.70;;
46180;SDS011;58963;50.438;30.594;2022-11-15T01:50:08;9.25;;;6.45;;
46180;SDS011;58963;50.438;30.594;2022-11-15T01:55:31;12.18;;;6.43;;
46180;SDS011;58963;50.438;30.594;2022-11-15T02:00:51;9.77;;;6.93;;
46180;SDS011;58963;50.438;30.594;2022-11-15T02:06:11;9.82;;;7.32;;
46180;SDS011;58963;50.438;30.594;2022-11-15T02:11:30;11.85;;;6.93;;
46180;SDS011;58963;50.438;30.594;2022-11-15T02:22:36;12.40;;;7.65;;
46180;SDS011;58963;50.438;30.594;2022-11-15T02:28:25;12.18;;;7.60;;
46180;SDS011;58963;50.438;30.594;2022-11-15T02:45:27;11.15;;;7.57;;
46180;SDS011;58963;50.438;30.594;2022-11-15T02:50:49;11.70;;;7.53;;
46180;SDS011;58963;50.438;30.594;2022-11-15T02:56:08;13.77;;;7.60;;
46180;SDS011;58963;50.438;30.594;2022-11-15T03:12:41;13.10;;;8.70;;
46180;SDS011;58963;50.438;30.594;2022-11-15T03:18:09;17.42;;;9.50;;
46180;SDS011;58963;50.438;30.594;2022-11-15T03:23:38;14.40;;;8.90;;
46180;SDS011;58963;50.438;30.594;2022-11-15T03:29:01;14.20;;;9.52;;
46180;SDS011;58963;50.438;30.594;2022-11-15T03:34:44;14.27;;;9.68;;
46180;SDS011;58963;50.438;30.594;2022-11-15T03:40:09;14.10;;;10.10;;
46180;SDS011;58963;50.438;30.594;2022-11-15T03:45:31;14.77;;;9.73;;
46180;SDS011;58963;50.438;30.594;2022-11-15T03:50:59;15.45;;;9.70;;
46180;SDS011;58963;50.438;30.594;2022-11-15T03:56:19;14.45;;;9.98;;
46180;SDS011;58963;50.438;30.594;2022-11-15T04:01:38;14.35;;;10.43;;
46180;SDS011;58963;50.438;30.594;2022-11-15T04:06:57;16.98;;;10.88;;
46180;SDS011;58963;50.438;30.594;2022-11-15T04:12:17;15.82;;;10.90;;
46180;SDS011;58963;50.438;30.594;2022-11-15T04:17:53;14.95;;;10.75;;
46180;SDS011;58963;50.438;30.594;2022-11-15T04:23:21;21.52;;;12.73;;
46180;SDS011;58963;50.438;30.594;2022-11-15T04:29:00;23.10;;;13.15;;
46180;SDS011;58963;50.438;30.594;2022-11-15T04:34:38;22.60;;;14.05;;
46180;SDS011;58963;50.438;30.594;2022-11-15T04:39:57;22.00;;;13.80;;
46180;SDS011;58963;50.438;30.594;2022-11-15T04:45:17;25.33;;;13.45;;
46180;SDS011;58963;50.438;30.594;2022-11-15T04:50:36;27.52;;;14.93;;
46180;SDS011;58963;50.438;30.594;2022-11-15T04:55:56;21.23;;;13.07;;
46180;SDS011;58963;50.438;30.594;2022-11-15T05:01:15;25.77;;;14.68;;
46180;SDS011;58963;50.438;30.594;2022-11-15T07:34:29;18.30;;;11.48;;
46180;SDS011;58963;50.438;30.594;2022-11-15T07:39:48;19.27;;;11.40;;
46180;SDS011;58963;50.438;30.594;2022-11-15T07:45:10;20.92;;;12.00;;
46180;SDS011;58963;50.438;30.594;2022-11-15T07:50:29;23.70;;;12.65;;
46180;SDS011;58963;50.438;30.594;2022-11-15T07:55:49;19.23;;;11.70;;
46180;SDS011;58963;50.438;30.594;2022-11-15T08:01:09;20.17;;;10.90;;
46180;SDS011;58963;50.438;30.594;2022-11-15T08:06:29;22.10;;;11.88;;
46180;SDS011;58963;50.438;30.594;2022-11-15T08:11:48;19.83;;;12.27;;
46180;SDS011;58963;50.438;30.594;2022-11-15T08:17:08;24.10;;;13.50;;
46180;SDS011;58963;50.438;30.594;2022-11-15T08:22:27;21.63;;;12.80;;
46180;SDS011;58963;50.438;30.594;2022-11-15T08:27:46;22.80;;;13.82;;
46180;SDS011;58963;50.438;30.594;2022-11-15T08:33:05;25.20;;;15.48;;
46180;SDS011;58963;50.438;30.594;2022-11-15T08:38:29;23.42;;;13.80;;
46180;SDS011;58963;50.438;30.594;2022-11-15T08:43:49;31.00;;;20.10;;
46180;SDS011;58963;50.438;30.594;2022-11-15T08:49:08;32.28;;;17.92;;
46180;SDS011;58963;50.438;30.594;2022-11-15T08:54:28;27.17;;;17.20;;
46180;SDS011;58963;50.438;30.594;2022-11-15T08:59:47;31.70;;;18.60;;
46180;SDS011;58963;50.438;30.594;2022-11-15T09:05:06;32.67;;;20.02;;
46180;SDS011;58963;50.438;30.594;2022-11-15T09:10:26;25.67;;;17.02;;
46180;SDS011;58963;50.438;30.594;2022-11-15T09:15:45;29.30;;;19.25;;
46180;SDS011;58963;50.438;30.594;2022-11-15T09:21:04;28.92;;;17.67;;
46180;SDS011;58963;50.438;30.594;2022-11-15T09:26:24;25.23;;;15.65;;
46180;SDS011;58963;50.438;30.594;2022-11-15T09:31:43;21.02;;;13.30;;
46180;SDS011;58963;50.438;30.594;2022-11-15T09:37:03;24.90;;;14.75;;
46180;SDS011;58963;50.438;30.594;2022-11-15T09:53:50;27.00;;;15.48;;
46180;SDS011;58963;50.438;30.594;2022-11-15T10:04:58;23.80;;;14.75;;
46180;SDS011;58963;50.438;30.594;2022-11-15T10:10:39;25.88;;;15.48;;
46180;SDS011;58963;50.438;30.594;2022-11-15T10:27:44;24.35;;;14.82;;
46180;SDS011;58963;50.438;30.594;2022-11-15T10:44:12;33.95;;;19.00;;
46180;SDS011;58963;50.438;30.594;2022-11-15T10:49:38;31.25;;;17.65;;
46180;SDS011;58963;50.438;30.594;2022-11-15T10:55:27;31.83;;;16.80;;
46180;SDS011;58963;50.438;30.594;2022-11-15T11:00:49;31.55;;;18.25;;
46180;SDS011;58963;50.438;30.594;2022-11-15T11:06:14;32.00;;;16.88;;
46180;SDS011;58963;50.438;30.594;2022-11-15T11:11:48;32.38;;;18.60;;
46180;SDS011;58963;50.438;30.594;2022-11-15T11:34:50;37.28;;;18.55;;
46180;SDS011;58963;50.438;30.594;2022-11-15T11:52:42;27.67;;;17.15;;
46180;SDS011;58963;50.438;30.594;2022-11-15T11:58:34;31.35;;;19.65;;
46180;SDS011;58963;50.438;30.594;2022-11-15T12:09:38;34.22;;;20.05;;
46180;SDS011;58963;50.438;30.594;2022-11-15T12:15:15;34.78;;;19.35;;
46180;SDS011;58963;50.438;30.594;2022-11-15T12:21:26;30.23;;;19.17;;
46180;SDS011;58963;50.438;30.594;2022-11-15T12:26:52;34.72;;;18.63;;
46180;SDS011;58963;50.438;30.594;2022-11-15T12:37:54;30.83;;;18.95;;
46180;SDS011;58963;50.438;30.594;2022-11-15T12:53:53;26.52;;;17.17;;
46180;SDS011;58963;50.438;30.594;2022-11-15T12:59:38;46.42;;;25.38;;
46180;SDS011;58963;50.438;30.594;2022-11-15T13:10:36;33.55;;;19.85;;
46180;SDS011;58963;50.438;30.594;2022-11-15T13:15:56;44.70;;;28.63;;
46180;SDS011;58963;50.438;30.594;2022-11-15T13:21:19;25.58;;;15.40;;
46180;SDS011;58963;50.438;30.594;2022-11-15T13:27:00;33.17;;;20.25;;
46180;SDS011;58963;50.438;30.594;2022-11-15T13:32:20;31.35;;;19.58;;
46180;SDS011;58963;50.438;30.594;2022-11-15T13:37:39;33.60;;;21.73;;
46180;SDS011;58963;50.438;30.594;2022-11-15T13:43:13;36.88;;;20.92;;
46180;SDS011;58963;50.438;30.594;2022-11-15T13:48:40;30.65;;;18.98;;
46180;SDS011;58963;50.438;30.594;2022-11-15T13:54:09;31.77;;;20.90;;
46180;SDS011;58963;50.438;30.594;2022-11-15T13:59:35;32.03;;;19.58;;
46180;SDS011;58963;50.438;30.594;2022-11-15T14:05:14;33.00;;;19.08;;
46180;SDS011;58963;50.438;30.594;2022-11-15T14:10:39;38.47;;;23.30;;
46180;SDS011;58963;50.438;30.594;2022-11-15T18:16:33;37.85;;;22.30;;
46180;SDS011;58963;50.438;30.594;2022-11-15T18:21:54;39.35;;;23.20;;
46180;SDS011;58963;50.438;30.594;2022-11-15T18:27:13;39.65;;;24.38;;
46180;SDS011;58963;50.438;30.594;2022-11-15T18:32:33;40.55;;;23.95;;
46180;SDS011;58963;50.438;30.594;2022-11-15T18:37:52;41.63;;;23.55;;
46180;SDS011;58963;50.438;30.594;2022-11-15T18:43:13;40.83;;;24.80;;
46180;SDS011;58963;50.438;30.594;2022-11-15T18:48:32;38.55;;;22.73;;
46180;SDS011;58963;50.438;30.594;2022-11-15T18:53:58;38.03;;;23.58;;
46180;SDS011;58963;50.438;30.594;2022-11-15T18:59:18;37.17;;;24.98;;
46180;SDS011;58963;50.438;30.594;2022-11-15T19:04:38;37.72;;;22.80;;
46180;SDS011;58963;50.438;30.594;2022-11-15T19:09:57;36.85;;;22.65;;
46180;SDS011;58963;50.438;30.594;2022-11-15T19:15:16;30.95;;;21.98;;
46180;SDS011;58963;50.438;30.594;2022-11-15T19:20:36;33.95;;;21.98;;
46180;SDS011;58963;50.438;30.594;2022-11-15T19:25:56;32.88;;;21.67;;
46180;SDS011;58963;50.438;30.594;2022-11-15T19:31:17;35.00;;;22.75;;
46180;SDS011;58963;50.438;30.594;2022-11-15T19:36:38;30.30;;;21.17;;
46180;SDS011;58963;50.438;30.594;2022-11-15T19:41:58;29.70;;;20.40;;
46180;SDS011;58963;50.438;30.594;2022-11-15T19:47:17;32.25;;;20.55;;
46180;SDS011;58963;50.438;30.594;2022-11-15T19:52:36;30.20;;;19.33;;
46180;SDS011;58963;50.438;30.594;2022-11-15T19:57:56;32.75;;;20.27;;
46180;SDS011;58963;50.438;30.594;2022-11-15T20:03:15;30.58;;;19.30;;
46180;SDS011;58963;50.438;30.594;2022-11-15T20:08:35;29.20;;;18.77;;
46180;SDS011;58963;50.438;30.594;2022-11-15T20:13:56;28.75;;;18.73;;
46180;SDS011;58963;50.438;30.594;2022-11-15T20:19:17;27.95;;;19.17;;
46180;SDS011;58963;50.438;30.594;2022-11-15T20:24:36;29.00;;;18.55;;
46180;SDS011;58963;50.438;30.594;2022-11-15T20:29:55;30.73;;;20.00;;
46180;SDS011;58963;50.438;30.594;2022-11-15T20:35:14;29.27;;;19.65;;
46180;SDS011;58963;50.438;30.594;2022-11-15T20:40:34;30.20;;;18.33;;
46180;SDS011;58963;50.438;30.594;2022-11-15T20:45:53;31.17;;;19.08;;
46180;SDS011;58963;50.438;30.594;2022-11-15T20:51:15;26.02;;;17.63;;
46180;SDS011;58963;50.438;30.594;2022-11-15T20:56:35;29.93;;;19.40;;
46180;SDS011;58963;50.438;30.594;2022-11-15T21:01:55;31.08;;;18.80;;
46180;SDS011;58963;50.438;30.594;2022-11-15T21:07:14;29.08;;;19.25;;
